• Join FlightAware (Why Join?)
  • Login
  • US Flag 
02:45AM EST


 

Airport Tracker/Info


-or-


 

Live Flight TrackerFlight Track Log ✈ ASQ5873 ✈ 06-May-2013 ✈ KGRB - KORD

Flight Track Log - Related Links

Times and Time Zones

All times are in EDT time to prevent confusion due to time zone crossing. See the ASQ5873 flight status page for this flight to view local times or setup timezone preferences in your user account.

Time Position Orientation Groundspeed Altitude Reporting Facility
EDT Latitude Longitude Course Direction KTS MPH feet Rate Location/Type
06:57AM 44.4306 -88.0500 180° South 232 267 4,600  Level Minneapolis Center
06:58AM 44.3887 -88.1833 180° South  Level FlightAware Approximate
06:58AM 44.3631 -88.0583 185° South 238 274 6,400  Level Minneapolis Center
06:59AM 44.3079 -88.1749 175° South  Level FlightAware Approximate
06:59AM 44.2889 -88.0642 183° South 261 300 8,700  Level Minneapolis Center
07:00AM 44.2271 -88.1660 176° South  Level FlightAware Approximate
07:00AM 44.2133 -88.0692 183° South 270 311 10,900  Level Minneapolis Center
07:01AM 44.1445 -88.1578 176° South  Level FlightAware Approximate
07:01AM 44.1314 -88.0756 183° South 290 334 12,100  Level Minneapolis Center
07:02AM 44.0619 -88.1500 180° South  Level FlightAware Approximate
07:02AM 44.0392 -88.0814 183° South 323 372 13,100  Level Minneapolis Center
07:03AM 43.9389 -88.0883 183° South 353 406 13,000 -60 Descending Minneapolis Center
07:04AM 43.8347 -88.0961 183° South 368 423 13,000  Level Minneapolis Center
07:05AM 43.7308 -88.1028 183° South 371 427 13,000  Level Minneapolis Center
07:06AM 43.6272 -88.1108 183° South 370 426 13,000 -60 Level Minneapolis Center
07:07AM 43.5242 -88.1183 183° South 369 425 12,900  Descending Chicago Center
07:08AM 43.4189 -88.1208 181° South 373 429 13,000 -600 Climbing Chicago Center
07:09AM 43.3156 -88.1175 179° South 369 425 11,800 -1,380 Descending Chicago Center
07:10AM 43.2139 -88.1117 178° South 364 419 10,300 -900 Descending Chicago Center
07:11AM 43.1167 -88.1214 184° South 352 405 10,000 -180 Descending Chicago Center
07:12AM 43.0194 -88.1431 189° South 352 405 10,000  Level Chicago Center
07:13AM 42.9217 -88.1633 189° South 354 407 10,000 -120 Level Chicago Center
07:14AM 42.8339 -88.1833 189° South 321 369 9,800 -600 Descending Chicago Center
07:15AM 42.7575 -88.1992 189° South 281 323 8,800 -900 Descending Chicago Center
07:16AM 42.6806 -88.2161 189° South 280 322 8,000 -420 Descending Chicago Center
07:17AM 42.5933 -88.2356 189° South 272 313 8,000  Level Chicago Center
07:18AM 42.5169 -88.2372 181° South 274 315 8,000  Level Chicago Center
07:19AM 42.4386 -88.2511 187° South 281 323 8,000  Level Chicago Center
07:20AM 42.3600 -88.2678 189° South 284 327 8,000 -420 Level Chicago Center
07:21AM 42.2839 -88.2819 188° South 281 323 7,200 -540 Descending Chicago Center
07:22AM 42.2086 -88.2967 188° South 276 318 7,000 -120 Descending Chicago Center
07:23AM 42.1367 -88.3114 189° South 265 305 7,000  Level Chicago Center
07:24AM 42.0706 -88.3128 181° South 245 282 7,000 -300 Level Chicago Center
07:25AM 42.0139 -88.3089 177° South 210 242 6,400 -840 Descending Chicago Center
07:26AM 41.9819 -88.2597 131° Southeast 191 220 5,400 -1,020 Descending Chicago Center
07:27AM 41.9683 -88.1864 104° East 175 201 4,400 -1,020 Descending Chicago Center
07:28AM 41.9681 -88.1225 90° East 172 198 3,400 -1,020 Descending Chicago Center
07:29AM 41.9667 -88.1000 95° East 170 196 3,000 -840 Descending Chicago TRACON
07:30AM 41.9667 -88.0333 90° East 164 189 2,200 -780 Descending Chicago TRACON
07:31AM 41.9667 -87.9833 90° East 131 151 1,400 -540 Descending Chicago TRACON
07:32AM 41.9692 -87.9036 88° East 146 168 900 -360 Descending Chicago Center